sensor_id;sensor_type;location;lat;lon;timestamp;temperature;humidity
29813;DHT22;16707;48.106;11.548;2023-08-06T00:01:55;14.90;99.90
29813;DHT22;16707;48.106;11.548;2023-08-06T00:04:22;14.90;99.90
29813;DHT22;16707;48.106;11.548;2023-08-06T00:06:49;14.90;99.90
29813;DHT22;16707;48.106;11.548;2023-08-06T00:09:16;14.90;99.90
29813;DHT22;16707;48.106;11.548;2023-08-06T00:11:43;14.90;99.90
29813;DHT22;16707;48.106;11.548;2023-08-06T00:14:12;14.90;99.90
29813;DHT22;16707;48.106;11.548;2023-08-06T00:16:43;14.90;99.90
29813;DHT22;16707;48.106;11.548;2023-08-06T00:19:10;14.90;99.90
29813;DHT22;16707;48.106;11.548;2023-08-06T00:21:37;14.90;99.90
29813;DHT22;16707;48.106;11.548;2023-08-06T00:24:04;15.00;99.90
29813;DHT22;16707;48.106;11.548;2023-08-06T00:26:31;14.90;99.90
29813;DHT22;16707;48.106;11.548;2023-08-06T00:28:58;14.90;99.90
29813;DHT22;16707;48.106;11.548;2023-08-06T00:31:25;14.90;99.90
29813;DHT22;16707;48.106;11.548;2023-08-06T00:33:54;14.90;99.90
29813;DHT22;16707;48.106;11.548;2023-08-06T00:36:20;14.70;99.90
29813;DHT22;16707;48.106;11.548;2023-08-06T00:38:47;14.70;99.90
29813;DHT22;16707;48.106;11.548;2023-08-06T00:41:15;14.60;99.90
29813;DHT22;16707;48.106;11.548;2023-08-06T00:43:41;14.60;99.90
29813;DHT22;16707;48.106;11.548;2023-08-06T00:46:08;14.60;99.90
29813;DHT22;16707;48.106;11.548;2023-08-06T00:48:36;14.50;99.90
29813;DHT22;16707;48.106;11.548;2023-08-06T00:51:04;14.50;99.90
29813;DHT22;16707;48.106;11.548;2023-08-06T00:53:31;14.40;99.90
29813;DHT22;16707;48.106;11.548;2023-08-06T00:55:58;14.30;99.90
29813;DHT22;16707;48.106;11.548;2023-08-06T00:58:26;14.30;99.90
29813;DHT22;16707;48.106;11.548;2023-08-06T01:00:53;14.30;99.90
29813;DHT22;16707;48.106;11.548;2023-08-06T01:03:20;14.20;99.90
29813;DHT22;16707;48.106;11.548;2023-08-06T01:05:47;14.20;99.90
29813;DHT22;16707;48.106;11.548;2023-08-06T01:08:25;14.20;99.90
29813;DHT22;16707;48.106;11.548;2023-08-06T01:11:07;14.20;99.90
29813;DHT22;16707;48.106;11.548;2023-08-06T01:13:46;14.20;99.90
29813;DHT22;16707;48.106;11.548;2023-08-06T01:16:15;14.20;99.90
29813;DHT22;16707;48.106;11.548;2023-08-06T01:18:44;14.20;99.90
29813;DHT22;16707;48.106;11.548;2023-08-06T01:21:16;14.20;99.90
29813;DHT22;16707;48.106;11.548;2023-08-06T01:23:44;14.20;99.90
29813;DHT22;16707;48.106;11.548;2023-08-06T01:26:15;14.20;99.90
29813;DHT22;16707;48.106;11.548;2023-08-06T01:28:52;14.20;99.90
29813;DHT22;16707;48.106;11.548;2023-08-06T01:31:24;14.20;99.90
29813;DHT22;16707;48.106;11.548;2023-08-06T01:33:54;14.20;99.90
29813;DHT22;16707;48.106;11.548;2023-08-06T01:36:24;14.20;99.90
29813;DHT22;16707;48.106;11.548;2023-08-06T01:38:53;14.20;99.90
29813;DHT22;16707;48.106;11.548;2023-08-06T01:41:20;14.20;99.90
29813;DHT22;16707;48.106;11.548;2023-08-06T01:43:47;14.20;99.90
29813;DHT22;16707;48.106;11.548;2023-08-06T01:46:14;14.20;99.90
29813;DHT22;16707;48.106;11.548;2023-08-06T01:48:41;14.20;99.90
29813;DHT22;16707;48.106;11.548;2023-08-06T01:51:08;14.20;99.90
29813;DHT22;16707;48.106;11.548;2023-08-06T01:53:37;14.20;99.90
29813;DHT22;16707;48.106;11.548;2023-08-06T01:56:03;14.20;99.90
29813;DHT22;16707;48.106;11.548;2023-08-06T01:58:30;14.20;99.90
29813;DHT22;16707;48.106;11.548;2023-08-06T02:00:57;14.20;99.90
29813;DHT22;16707;48.106;11.548;2023-08-06T02:03:24;14.10;99.90
29813;DHT22;16707;48.106;11.548;2023-08-06T02:05:51;14.10;99.90
29813;DHT22;16707;48.106;11.548;2023-08-06T02:08:18;14.10;99.90
29813;DHT22;16707;48.106;11.548;2023-08-06T02:10:47;14.20;99.90
29813;DHT22;16707;48.106;11.548;2023-08-06T02:13:14;14.10;99.90
29813;DHT22;16707;48.106;11.548;2023-08-06T02:15:44;14.10;99.90
29813;DHT22;16707;48.106;11.548;2023-08-06T02:18:13;14.10;99.90
29813;DHT22;16707;48.106;11.548;2023-08-06T02:20:40;14.10;99.90
29813;DHT22;16707;48.106;11.548;2023-08-06T02:23:07;14.10;99.90
29813;DHT22;16707;48.106;11.548;2023-08-06T02:25:34;14.00;99.90
29813;DHT22;16707;48.106;11.548;2023-08-06T02:28:03;14.00;99.90
29813;DHT22;16707;48.106;11.548;2023-08-06T02:30:30;14.00;99.90
29813;DHT22;16707;48.106;11.548;2023-08-06T02:32:57;13.90;99.90
29813;DHT22;16707;48.106;11.548;2023-08-06T02:35:24;13.90;99.90
29813;DHT22;16707;48.106;11.548;2023-08-06T02:37:51;13.90;99.90
29813;DHT22;16707;48.106;11.548;2023-08-06T02:40:18;13.90;99.90
29813;DHT22;16707;48.106;11.548;2023-08-06T02:42:45;13.90;99.90
29813;DHT22;16707;48.106;11.548;2023-08-06T02:45:13;13.80;99.90
29813;DHT22;16707;48.106;11.548;2023-08-06T02:47:40;13.80;99.90
29813;DHT22;16707;48.106;11.548;2023-08-06T02:50:07;13.80;99.90
29813;DHT22;16707;48.106;11.548;2023-08-06T02:52:34;13.80;99.90
29813;DHT22;16707;48.106;11.548;2023-08-06T02:55:01;13.80;99.90
29813;DHT22;16707;48.106;11.548;2023-08-06T02:57:28;13.80;99.90
29813;DHT22;16707;48.106;11.548;2023-08-06T02:59:55;13.80;99.90
29813;DHT22;16707;48.106;11.548;2023-08-06T03:02:23;13.70;99.90
29813;DHT22;16707;48.106;11.548;2023-08-06T03:04:50;13.70;99.90
29813;DHT22;16707;48.106;11.548;2023-08-06T03:07:17;13.60;99.90
29813;DHT22;16707;48.106;11.548;2023-08-06T03:09:44;13.60;99.90
29813;DHT22;16707;48.106;11.548;2023-08-06T03:12:12;13.50;99.90
29813;DHT22;16707;48.106;11.548;2023-08-06T03:14:39;13.50;99.90
29813;DHT22;16707;48.106;11.548;2023-08-06T03:17:06;13.40;99.90
29813;DHT22;16707;48.106;11.548;2023-08-06T03:19:35;13.40;99.90
29813;DHT22;16707;48.106;11.548;2023-08-06T03:22:02;13.40;99.90
29813;DHT22;16707;48.106;11.548;2023-08-06T03:24:28;13.30;99.90
29813;DHT22;16707;48.106;11.548;2023-08-06T03:26:55;13.30;99.90
29813;DHT22;16707;48.106;11.548;2023-08-06T03:29:22;13.20;99.90
29813;DHT22;16707;48.106;11.548;2023-08-06T03:31:49;13.20;99.90
29813;DHT22;16707;48.106;11.548;2023-08-06T03:34:16;13.10;99.90
29813;DHT22;16707;48.106;11.548;2023-08-06T03:36:44;13.10;99.90
29813;DHT22;16707;48.106;11.548;2023-08-06T03:39:11;13.10;99.90
29813;DHT22;16707;48.106;11.548;2023-08-06T03:41:39;13.00;99.90
29813;DHT22;16707;48.106;11.548;2023-08-06T03:44:06;13.00;99.90
29813;DHT22;16707;48.106;11.548;2023-08-06T03:46:33;13.10;99.90
29813;DHT22;16707;48.106;11.548;2023-08-06T03:49:00;13.10;99.90
29813;DHT22;16707;48.106;11.548;2023-08-06T03:51:27;13.00;99.90
29813;DHT22;16707;48.106;11.548;2023-08-06T03:53:56;13.10;99.90
29813;DHT22;16707;48.106;11.548;2023-08-06T03:56:23;13.00;99.90
29813;DHT22;16707;48.106;11.548;2023-08-06T03:58:50;13.00;99.90
29813;DHT22;16707;48.106;11.548;2023-08-06T04:01:16;13.00;99.90
29813;DHT22;16707;48.106;11.548;2023-08-06T04:03:43;12.90;99.90
29813;DHT22;16707;48.106;11.548;2023-08-06T04:06:10;12.90;99.90
29813;DHT22;16707;48.106;11.548;2023-08-06T04:08:37;12.90;99.90
29813;DHT22;16707;48.106;11.548;2023-08-06T04:11:05;12.90;99.90
29813;DHT22;16707;48.106;11.548;2023-08-06T04:13:32;12.90;99.90
29813;DHT22;16707;48.106;11.548;2023-08-06T04:16:01;12.90;99.90
29813;DHT22;16707;48.106;11.548;2023-08-06T04:18:28;13.00;99.90
29813;DHT22;16707;48.106;11.548;2023-08-06T04:20:55;13.00;99.90
29813;DHT22;16707;48.106;11.548;2023-08-06T04:23:23;13.10;99.90
29813;DHT22;16707;48.106;11.548;2023-08-06T04:25:50;13.20;99.90
29813;DHT22;16707;48.106;11.548;2023-08-06T04:28:18;13.20;99.90
29813;DHT22;16707;48.106;11.548;2023-08-06T04:30:45;13.30;99.90
29813;DHT22;16707;48.106;11.548;2023-08-06T04:33:13;13.40;99.90
29813;DHT22;16707;48.106;11.548;2023-08-06T04:35:40;13.50;99.90
29813;DHT22;16707;48.106;11.548;2023-08-06T04:38:07;13.60;99.90
29813;DHT22;16707;48.106;11.548;2023-08-06T04:40:34;13.70;99.90
29813;DHT22;16707;48.106;11.548;2023-08-06T04:43:00;13.80;99.90
29813;DHT22;16707;48.106;11.548;2023-08-06T04:45:29;13.90;99.90
29813;DHT22;16707;48.106;11.548;2023-08-06T04:47:56;13.90;99.90
29813;DHT22;16707;48.106;11.548;2023-08-06T04:50:23;14.00;99.90
29813;DHT22;16707;48.106;11.548;2023-08-06T04:52:50;14.20;99.90
29813;DHT22;16707;48.106;11.548;2023-08-06T04:55:17;14.50;99.90
29813;DHT22;16707;48.106;11.548;2023-08-06T04:57:44;14.70;99.90
29813;DHT22;16707;48.106;11.548;2023-08-06T05:00:11;14.70;99.90
29813;DHT22;16707;48.106;11.548;2023-08-06T05:02:40;14.70;99.90
29813;DHT22;16707;48.106;11.548;2023-08-06T05:05:07;14.70;99.90
29813;DHT22;16707;48.106;11.548;2023-08-06T05:07:35;14.60;99.90
29813;DHT22;16707;48.106;11.548;2023-08-06T05:10:03;14.60;99.90
29813;DHT22;16707;48.106;11.548;2023-08-06T05:12:30;14.50;99.90
29813;DHT22;16707;48.106;11.548;2023-08-06T05:14:57;14.30;99.90
29813;DHT22;16707;48.106;11.548;2023-08-06T05:17:24;14.40;99.90
29813;DHT22;16707;48.106;11.548;2023-08-06T05:19:52;14.40;99.90
29813;DHT22;16707;48.106;11.548;2023-08-06T05:22:19;14.50;99.90
29813;DHT22;16707;48.106;11.548;2023-08-06T05:24:46;14.50;99.90
29813;DHT22;16707;48.106;11.548;2023-08-06T05:27:13;14.50;99.90
29813;DHT22;16707;48.106;11.548;2023-08-06T05:29:40;14.50;99.90
29813;DHT22;16707;48.106;11.548;2023-08-06T05:32:07;14.50;99.90
29813;DHT22;16707;48.106;11.548;2023-08-06T05:34:34;14.50;99.90
29813;DHT22;16707;48.106;11.548;2023-08-06T05:37:03;14.50;99.90
29813;DHT22;16707;48.106;11.548;2023-08-06T05:39:30;14.60;99.90
29813;DHT22;16707;48.106;11.548;2023-08-06T05:41:57;14.60;99.90
29813;DHT22;16707;48.106;11.548;2023-08-06T05:44:24;14.60;99.90
29813;DHT22;16707;48.106;11.548;2023-08-06T05:46:51;14.70;99.90
29813;DHT22;16707;48.106;11.548;2023-08-06T05:49:19;14.70;99.90
29813;DHT22;16707;48.106;11.548;2023-08-06T05:51:45;14.80;99.90
29813;DHT22;16707;48.106;11.548;2023-08-06T05:54:14;14.90;99.90
29813;DHT22;16707;48.106;11.548;2023-08-06T05:56:41;15.00;99.90
29813;DHT22;16707;48.106;11.548;2023-08-06T05:59:08;15.10;99.90
29813;DHT22;16707;48.106;11.548;2023-08-06T06:01:35;15.20;99.90
29813;DHT22;16707;48.106;11.548;2023-08-06T06:04:02;15.30;99.90
29813;DHT22;16707;48.106;11.548;2023-08-06T06:06:29;15.40;99.90
29813;DHT22;16707;48.106;11.548;2023-08-06T06:08:56;15.50;99.90
29813;DHT22;16707;48.106;11.548;2023-08-06T06:11:25;15.60;99.90
29813;DHT22;16707;48.106;11.548;2023-08-06T06:13:52;15.70;99.90
29813;DHT22;16707;48.106;11.548;2023-08-06T06:16:19;15.90;99.90
29813;DHT22;16707;48.106;11.548;2023-08-06T06:18:46;16.10;99.90
29813;DHT22;16707;48.106;11.548;2023-08-06T06:21:13;16.20;99.90
29813;DHT22;16707;48.106;11.548;2023-08-06T06:23:40;16.40;99.90
29813;DHT22;16707;48.106;11.548;2023-08-06T06:26:07;16.60;99.90
29813;DHT22;16707;48.106;11.548;2023-08-06T06:28:36;17.20;99.90
29813;DHT22;16707;48.106;11.548;2023-08-06T06:31:03;17.70;99.90
29813;DHT22;16707;48.106;11.548;2023-08-06T06:33:30;18.40;99.90
29813;DHT22;16707;48.106;11.548;2023-08-06T06:35:57;18.40;99.90
29813;DHT22;16707;48.106;11.548;2023-08-06T06:38:24;18.70;99.90
29813;DHT22;16707;48.106;11.548;2023-08-06T06:40:54;19.70;99.90
29813;DHT22;16707;48.106;11.548;2023-08-06T06:43:22;19.60;99.90
29813;DHT22;16707;48.106;11.548;2023-08-06T06:45:55;19.30;99.90
29813;DHT22;16707;48.106;11.548;2023-08-06T06:48:23;19.50;99.90
29813;DHT22;16707;48.106;11.548;2023-08-06T06:50:50;19.70;99.90
29813;DHT22;16707;48.106;11.548;2023-08-06T06:53:17;19.90;99.90
29813;DHT22;16707;48.106;11.548;2023-08-06T06:55:44;19.40;99.90
29813;DHT22;16707;48.106;11.548;2023-08-06T06:58:14;21.00;99.90
29813;DHT22;16707;48.106;11.548;2023-08-06T07:00:42;26.20;84.10
29813;DHT22;16707;48.106;11.548;2023-08-06T07:03:10;23.60;82.90
29813;DHT22;16707;48.106;11.548;2023-08-06T07:05:37;21.90;92.50
29813;DHT22;16707;48.106;11.548;2023-08-06T07:08:04;23.50;92.50
29813;DHT22;16707;48.106;11.548;2023-08-06T07:10:31;26.60;74.80
29813;DHT22;16707;48.106;11.548;2023-08-06T07:12:58;25.20;72.00
29813;DHT22;16707;48.106;11.548;2023-08-06T07:15:26;23.60;77.80
29813;DHT22;16707;48.106;11.548;2023-08-06T07:17:53;21.80;83.20
29813;DHT22;16707;48.106;11.548;2023-08-06T07:20:21;20.50;90.60
29813;DHT22;16707;48.106;11.548;2023-08-06T07:22:48;19.80;94.00
29813;DHT22;16707;48.106;11.548;2023-08-06T07:25:16;19.40;96.40
29813;DHT22;16707;48.106;11.548;2023-08-06T07:27:43;18.90;97.50
29813;DHT22;16707;48.106;11.548;2023-08-06T07:30:10;18.30;99.90
29813;DHT22;16707;48.106;11.548;2023-08-06T07:32:37;18.10;99.90
29813;DHT22;16707;48.106;11.548;2023-08-06T07:35:05;17.80;99.90
29813;DHT22;16707;48.106;11.548;2023-08-06T07:37:35;17.60;99.90
29813;DHT22;16707;48.106;11.548;2023-08-06T07:40:02;17.70;99.90
29813;DHT22;16707;48.106;11.548;2023-08-06T07:42:29;17.70;99.90
29813;DHT22;16707;48.106;11.548;2023-08-06T07:44:58;17.70;99.90
29813;DHT22;16707;48.106;11.548;2023-08-06T07:47:25;17.70;99.90
29813;DHT22;16707;48.106;11.548;2023-08-06T07:49:52;17.80;99.90
29813;DHT22;16707;48.106;11.548;2023-08-06T07:52:19;17.80;99.90
29813;DHT22;16707;48.106;11.548;2023-08-06T07:54:48;17.70;99.90
29813;DHT22;16707;48.106;11.548;2023-08-06T07:57:15;17.70;99.90
29813;DHT22;16707;48.106;11.548;2023-08-06T07:59:42;18.10;99.90
29813;DHT22;16707;48.106;11.548;2023-08-06T08:02:09;18.50;99.90
29813;DHT22;16707;48.106;11.548;2023-08-06T08:04:36;18.90;99.90
29813;DHT22;16707;48.106;11.548;2023-08-06T08:07:03;19.30;99.90
29813;DHT22;16707;48.106;11.548;2023-08-06T08:09:31;19.80;99.90
29813;DHT22;16707;48.106;11.548;2023-08-06T08:11:59;19.70;99.30
29813;DHT22;16707;48.106;11.548;2023-08-06T08:14:28;20.40;99.90
29813;DHT22;16707;48.106;11.548;2023-08-06T08:17:00;20.70;98.30
29813;DHT22;16707;48.106;11.548;2023-08-06T08:19:27;20.90;97.10
29813;DHT22;16707;48.106;11.548;2023-08-06T08:21:55;20.90;97.80
29813;DHT22;16707;48.106;11.548;2023-08-06T08:24:22;21.10;96.70
29813;DHT22;16707;48.106;11.548;2023-08-06T08:26:50;21.50;95.00
29813;DHT22;16707;48.106;11.548;2023-08-06T08:29:19;21.60;93.00
29813;DHT22;16707;48.106;11.548;2023-08-06T08:31:47;21.30;91.60
29813;DHT22;16707;48.106;11.548;2023-08-06T08:34:15;21.50;92.60
29813;DHT22;16707;48.106;11.548;2023-08-06T08:36:42;21.50;91.60
29813;DHT22;16707;48.106;11.548;2023-08-06T08:39:12;21.50;90.00
29813;DHT22;16707;48.106;11.548;2023-08-06T08:41:39;21.40;88.00
29813;DHT22;16707;48.106;11.548;2023-08-06T08:44:08;21.00;89.00
29813;DHT22;16707;48.106;11.548;2023-08-06T08:46:40;20.50;90.30
29813;DHT22;16707;48.106;11.548;2023-08-06T08:49:07;20.30;90.80
29813;DHT22;16707;48.106;11.548;2023-08-06T08:51:34;20.20;91.80
29813;DHT22;16707;48.106;11.548;2023-08-06T08:54:03;19.80;92.30
29813;DHT22;16707;48.106;11.548;2023-08-06T08:56:31;19.40;92.50
29813;DHT22;16707;48.106;11.548;2023-08-06T08:58:58;19.30;92.90
29813;DHT22;16707;48.106;11.548;2023-08-06T09:01:26;19.50;92.90
29813;DHT22;16707;48.106;11.548;2023-08-06T09:03:58;19.80;92.20
29813;DHT22;16707;48.106;11.548;2023-08-06T09:06:26;20.00;92.40
29813;DHT22;16707;48.106;11.548;2023-08-06T09:09:01;20.00;91.80
29813;DHT22;16707;48.106;11.548;2023-08-06T09:11:32;19.90;92.50
29813;DHT22;16707;48.106;11.548;2023-08-06T09:14:06;20.10;92.00
29813;DHT22;16707;48.106;11.548;2023-08-06T09:16:34;19.40;95.20
29813;DHT22;16707;48.106;11.548;2023-08-06T09:19:08;19.20;97.10
29813;DHT22;16707;48.106;11.548;2023-08-06T09:21:37;19.10;96.80
29813;DHT22;16707;48.106;11.548;2023-08-06T09:24:08;19.10;96.10
29813;DHT22;16707;48.106;11.548;2023-08-06T09:26:37;19.30;95.30
29813;DHT22;16707;48.106;11.548;2023-08-06T09:29:05;19.00;95.20
29813;DHT22;16707;48.106;11.548;2023-08-06T09:31:33;18.70;95.90
29813;DHT22;16707;48.106;11.548;2023-08-06T09:34:12;18.70;95.70
29813;DHT22;16707;48.106;11.548;2023-08-06T09:36:42;18.70;96.30
29813;DHT22;16707;48.106;11.548;2023-08-06T09:39:13;18.70;96.80
29813;DHT22;16707;48.106;11.548;2023-08-06T09:41:41;19.10;95.70
29813;DHT22;16707;48.106;11.548;2023-08-06T09:44:17;19.00;94.30
29813;DHT22;16707;48.106;11.548;2023-08-06T09:46:47;19.10;93.30
29813;DHT22;16707;48.106;11.548;2023-08-06T09:49:18;19.10;93.70
29813;DHT22;16707;48.106;11.548;2023-08-06T09:51:46;19.20;92.90
29813;DHT22;16707;48.106;11.548;2023-08-06T09:54:16;19.40;92.50
29813;DHT22;16707;48.106;11.548;2023-08-06T09:56:44;19.40;93.00
29813;DHT22;16707;48.106;11.548;2023-08-06T09:59:12;19.80;92.30
29813;DHT22;16707;48.106;11.548;2023-08-06T10:01:39;19.60;91.30
29813;DHT22;16707;48.106;11.548;2023-08-06T10:04:06;19.30;91.80
29813;DHT22;16707;48.106;11.548;2023-08-06T10:06:36;18.90;92.80
29813;DHT22;16707;48.106;11.548;2023-08-06T10:09:04;18.90;92.80
29813;DHT22;16707;48.106;11.548;2023-08-06T10:11:31;18.60;93.00
29813;DHT22;16707;48.106;11.548;2023-08-06T10:14:02;18.40;92.90
29813;DHT22;16707;48.106;11.548;2023-08-06T10:16:31;18.00;93.60
29813;DHT22;16707;48.106;11.548;2023-08-06T10:18:59;17.90;95.00
29813;DHT22;16707;48.106;11.548;2023-08-06T10:21:27;18.30;95.00
29813;DHT22;16707;48.106;11.548;2023-08-06T10:23:57;18.60;94.70
29813;DHT22;16707;48.106;11.548;2023-08-06T10:26:28;18.60;93.80
29813;DHT22;16707;48.106;11.548;2023-08-06T10:28:55;19.10;93.70
29813;DHT22;16707;48.106;11.548;2023-08-06T10:31:58;19.20;93.60
29813;DHT22;16707;48.106;11.548;2023-08-06T10:34:56;19.60;93.10
29813;DHT22;16707;48.106;11.548;2023-08-06T10:37:24;19.60;92.50
29813;DHT22;16707;48.106;11.548;2023-08-06T10:39:52;19.30;92.10
29813;DHT22;16707;48.106;11.548;2023-08-06T10:42:21;19.00;92.50
29813;DHT22;16707;48.106;11.548;2023-08-06T10:45:11;18.70;93.10
29813;DHT22;16707;48.106;11.548;2023-08-06T10:47:39;18.90;93.20
29813;DHT22;16707;48.106;11.548;2023-08-06T10:50:07;18.80;93.10
29813;DHT22;16707;48.106;11.548;2023-08-06T10:52:37;18.60;93.80
29813;DHT22;16707;48.106;11.548;2023-08-06T10:55:06;18.60;93.20
29813;DHT22;16707;48.106;11.548;2023-08-06T10:57:34;18.70;93.90
29813;DHT22;16707;48.106;11.548;2023-08-06T11:00:03;19.10;93.70
29813;DHT22;16707;48.106;11.548;2023-08-06T11:02:33;19.20;93.10
29813;DHT22;16707;48.106;11.548;2023-08-06T11:05:07;19.40;93.20
29813;DHT22;16707;48.106;11.548;2023-08-06T11:07:35;19.80;92.70
29813;DHT22;16707;48.106;11.548;2023-08-06T11:10:04;19.70;91.20
29813;DHT22;16707;48.106;11.548;2023-08-06T11:12:34;19.90;91.50
29813;DHT22;16707;48.106;11.548;2023-08-06T11:15:02;20.20;91.30
29813;DHT22;16707;48.106;11.548;2023-08-06T11:17:32;20.40;90.80
29813;DHT22;16707;48.106;11.548;2023-08-06T11:20:00;20.00;91.50
29813;DHT22;16707;48.106;11.548;2023-08-06T11:22:27;19.80;91.30
29813;DHT22;16707;48.106;11.548;2023-08-06T11:24:55;19.60;92.40
29813;DHT22;16707;48.106;11.548;2023-08-06T11:27:25;19.20;93.10
29813;DHT22;16707;48.106;11.548;2023-08-06T11:29:52;18.50;93.00
29813;DHT22;16707;48.106;11.548;2023-08-06T11:32:20;18.50;94.60
29813;DHT22;16707;48.106;11.548;2023-08-06T11:34:47;19.10;93.70
29813;DHT22;16707;48.106;11.548;2023-08-06T11:37:14;19.20;93.90
29813;DHT22;16707;48.106;11.548;2023-08-06T11:39:47;18.90;93.30
29813;DHT22;16707;48.106;11.548;2023-08-06T11:42:14;18.90;94.00
29813;DHT22;16707;48.106;11.548;2023-08-06T11:44:43;18.80;94.20
29813;DHT22;16707;48.106;11.548;2023-08-06T11:47:13;18.70;94.60
29813;DHT22;16707;48.106;11.548;2023-08-06T11:49:42;18.70;94.80
29813;DHT22;16707;48.106;11.548;2023-08-06T11:52:13;18.80;94.40
29813;DHT22;16707;48.106;11.548;2023-08-06T11:54:42;19.00;94.70
29813;DHT22;16707;48.106;11.548;2023-08-06T11:57:09;19.10;93.50
29813;DHT22;16707;48.106;11.548;2023-08-06T11:59:37;18.90;93.40
29813;DHT22;16707;48.106;11.548;2023-08-06T12:02:08;19.20;94.30
29813;DHT22;16707;48.106;11.548;2023-08-06T12:05:04;19.30;93.60
29813;DHT22;16707;48.106;11.548;2023-08-06T12:07:32;19.00;93.90
29813;DHT22;16707;48.106;11.548;2023-08-06T12:09:59;19.10;94.10
29813;DHT22;16707;48.106;11.548;2023-08-06T12:12:27;19.50;94.40
29813;DHT22;16707;48.106;11.548;2023-08-06T12:14:54;19.50;93.40
29813;DHT22;16707;48.106;11.548;2023-08-06T12:17:24;19.40;93.10
29813;DHT22;16707;48.106;11.548;2023-08-06T12:19:51;19.40;93.50
29813;DHT22;16707;48.106;11.548;2023-08-06T12:22:18;19.40;93.30
29813;DHT22;16707;48.106;11.548;2023-08-06T12:24:46;19.00;93.70
29813;DHT22;16707;48.106;11.548;2023-08-06T12:27:14;18.50;94.30
29813;DHT22;16707;48.106;11.548;2023-08-06T12:29:42;18.30;95.60
29813;DHT22;16707;48.106;11.548;2023-08-06T12:32:09;18.40;95.60
29813;DHT22;16707;48.106;11.548;2023-08-06T12:34:38;18.50;95.30
29813;DHT22;16707;48.106;11.548;2023-08-06T12:37:06;18.50;95.70
29813;DHT22;16707;48.106;11.548;2023-08-06T12:39:33;18.40;95.70
29813;DHT22;16707;48.106;11.548;2023-08-06T12:42:01;18.40;96.10
29813;DHT22;16707;48.106;11.548;2023-08-06T12:44:29;18.20;96.20
29813;DHT22;16707;48.106;11.548;2023-08-06T12:46:57;18.00;97.70
29813;DHT22;16707;48.106;11.548;2023-08-06T12:49:25;17.70;98.80
29813;DHT22;16707;48.106;11.548;2023-08-06T12:51:53;17.70;99.90
29813;DHT22;16707;48.106;11.548;2023-08-06T12:54:22;17.90;99.90
29813;DHT22;16707;48.106;11.548;2023-08-06T12:56:49;17.80;99.90
29813;DHT22;16707;48.106;11.548;2023-08-06T12:59:17;18.10;99.90
29813;DHT22;16707;48.106;11.548;2023-08-06T13:01:45;18.30;99.90
29813;DHT22;16707;48.106;11.548;2023-08-06T13:04:12;18.50;99.90
29813;DHT22;16707;48.106;11.548;2023-08-06T13:06:39;18.40;99.80
29813;DHT22;16707;48.106;11.548;2023-08-06T13:09:07;18.30;99.90
29813;DHT22;16707;48.106;11.548;2023-08-06T13:11:35;18.20;99.90
29813;DHT22;16707;48.106;11.548;2023-08-06T13:14:07;18.30;99.90
29813;DHT22;16707;48.106;11.548;2023-08-06T13:16:35;18.00;99.90
29813;DHT22;16707;48.106;11.548;2023-08-06T13:19:03;17.60;99.90
29813;DHT22;16707;48.106;11.548;2023-08-06T13:21:32;17.40;99.90
29813;DHT22;16707;48.106;11.548;2023-08-06T13:24:00;17.50;99.90
29813;DHT22;16707;48.106;11.548;2023-08-06T13:26:30;17.40;99.90
29813;DHT22;16707;48.106;11.548;2023-08-06T13:28:57;17.40;99.90
29813;DHT22;16707;48.106;11.548;2023-08-06T13:31:26;17.10;99.90
29813;DHT22;16707;48.106;11.548;2023-08-06T13:33:54;16.90;99.90
29813;DHT22;16707;48.106;11.548;2023-08-06T13:36:23;16.90;99.90
29813;DHT22;16707;48.106;11.548;2023-08-06T13:38:50;17.00;99.90
29813;DHT22;16707;48.106;11.548;2023-08-06T13:41:17;17.20;99.90
29813;DHT22;16707;48.106;11.548;2023-08-06T13:43:46;17.40;99.90
29813;DHT22;16707;48.106;11.548;2023-08-06T13:46:13;17.30;99.90
29813;DHT22;16707;48.106;11.548;2023-08-06T13:48:42;17.30;99.90
29813;DHT22;16707;48.106;11.548;2023-08-06T13:51:09;17.40;99.90
29813;DHT22;16707;48.106;11.548;2023-08-06T13:53:36;17.40;99.90
29813;DHT22;16707;48.106;11.548;2023-08-06T13:56:04;17.50;99.90
29813;DHT22;16707;48.106;11.548;2023-08-06T13:58:32;17.40;99.90
29813;DHT22;16707;48.106;11.548;2023-08-06T14:01:00;17.30;99.90
29813;DHT22;16707;48.106;11.548;2023-08-06T14:03:27;17.10;99.90
29813;DHT22;16707;48.106;11.548;2023-08-06T14:05:54;16.70;99.90
29813;DHT22;16707;48.106;11.548;2023-08-06T14:08:22;16.50;99.90
29813;DHT22;16707;48.106;11.548;2023-08-06T14:10:49;16.30;99.90
29813;DHT22;16707;48.106;11.548;2023-08-06T14:13:16;16.20;99.90
29813;DHT22;16707;48.106;11.548;2023-08-06T14:15:43;16.10;99.90
29813;DHT22;16707;48.106;11.548;2023-08-06T14:18:14;16.20;99.90
29813;DHT22;16707;48.106;11.548;2023-08-06T14:20:41;16.30;99.90
29813;DHT22;16707;48.106;11.548;2023-08-06T14:23:08;16.40;99.90
29813;DHT22;16707;48.106;11.548;2023-08-06T14:25:35;16.50;99.90
29813;DHT22;16707;48.106;11.548;2023-08-06T14:28:03;16.30;99.90
29813;DHT22;16707;48.106;11.548;2023-08-06T14:30:31;16.20;99.90
29813;DHT22;16707;48.106;11.548;2023-08-06T14:32:58;16.20;99.90
29813;DHT22;16707;48.106;11.548;2023-08-06T14:35:28;16.20;99.90
29813;DHT22;16707;48.106;11.548;2023-08-06T14:37:55;16.20;99.90
29813;DHT22;16707;48.106;11.548;2023-08-06T14:40:22;15.90;99.90
29813;DHT22;16707;48.106;11.548;2023-08-06T14:42:51;15.90;99.90
29813;DHT22;16707;48.106;11.548;2023-08-06T14:45:18;15.90;99.90
29813;DHT22;16707;48.106;11.548;2023-08-06T14:47:45;15.90;99.90
29813;DHT22;16707;48.106;11.548;2023-08-06T14:50:12;15.70;99.90
29813;DHT22;16707;48.106;11.548;2023-08-06T14:52:40;15.70;99.90
29813;DHT22;16707;48.106;11.548;2023-08-06T14:55:08;15.60;99.90
29813;DHT22;16707;48.106;11.548;2023-08-06T14:57:35;15.60;99.90
29813;DHT22;16707;48.106;11.548;2023-08-06T15:00:02;15.60;99.90
29813;DHT22;16707;48.106;11.548;2023-08-06T15:02:30;15.50;99.90
29813;DHT22;16707;48.106;11.548;2023-08-06T15:04:56;15.60;99.90
29813;DHT22;16707;48.106;11.548;2023-08-06T15:07:23;15.50;99.90
29813;DHT22;16707;48.106;11.548;2023-08-06T15:09:52;15.50;99.90
29813;DHT22;16707;48.106;11.548;2023-08-06T15:12:21;15.30;99.90
29813;DHT22;16707;48.106;11.548;2023-08-06T15:14:48;15.30;99.90
29813;DHT22;16707;48.106;11.548;2023-08-06T15:17:15;15.50;99.90
29813;DHT22;16707;48.106;11.548;2023-08-06T15:19:42;15.80;99.90
29813;DHT22;16707;48.106;11.548;2023-08-06T15:22:09;15.90;99.90